Carlos Reyes

Scout - Oviedo
2 Sep 2027
Donnerstag
Verarbeitung

Persönlichkeit

Anpassungsfähigkeit (18) Ehrgeiz (16) Kontroverse (17) Loyalität (11) Druck (7) Professionalität (8) Fairness (16) Temperament (10)

Profil

Trainerstil Demokratisch
Lizenz Nationale B
Entschlossenheit 4
Menschenführung 6
Motivation 9
Disziplin 8
Arbeitszufriedenheit
100%
Ermüdung
0%
Rolle Scout
Gehalt 17.4K p/W
Vertrag 14.03.2030

Leistung

Verhalten Gut
Trainingseffektivität
44%
Spielerentwicklung
35%
Verletzungsprävention
65%
Taktische Umsetzung
40%

Letzte Ereignisse

Nahm an einer Scouting-Besprechung teil jetzt
Nahm an einer Scouting-Besprechung teil jetzt
Nahm an einer Scouting-Besprechung teil 7T her
Nahm an einer Scouting-Besprechung teil 7T her
Nahm an einer Scouting-Besprechung teil 7T her
Empfahl ein Transferziel 7T her
Nahm an einer Scouting-Besprechung teil 14T her
Empfahl ein Transferziel 14T her

Aktuell beobachtet

138
Spieler Verein Status Fähigkeit Vertrauen Beobachtet Zuletzt beobachtet Letzte Stimme
Raúl Sánchez Castellón Aktiv 121 / 105 72% 1 14.06.2027 Befürworten
Gonçalo Oliveira Benfica Aktiv 108 / 104 40% 2 28.05.2027 -
Darryl Bakola Padova Aktiv 111 / 111 40% 3 28.05.2027 -
Marc Bernal Real Sociedad Verloren 148 / 153 40% 1 28.05.2027 -
Louis Leroux FC Nantes Aktiv 132 / 119 40% 3 27.05.2027 -
Kazunari Kita Real Sociedad Aktiv 93 / 106 40% 4 27.05.2027 Beobachten
Simone Kosijer Triestina Aktiv 91 / 114 40% 1 27.05.2027 -
Christ Inao Oulaï Fiorentina Aktiv 129 / 145 40% 4 26.05.2027 -
Dylan Lawlor Cardiff City Aktiv 109 / 111 40% 2 26.05.2027 -
Lucas Høgsberg RC Strasbourg Aktiv 135 / 133 40% 2 26.05.2027 -
Simón Pinto Palestino Aktiv 96 / 108 40% 1 25.05.2027 -
Ibrahim Maza Bayer Leverkusen Aktiv 151 / 143 40% 5 24.05.2027 -
Khalis Merah Toulouse FC Aktiv 123 / 126 40% 2 24.05.2027 -
Kevin Vazquez Cruz Azul Aktiv 146 / 154 40% 12 20.05.2027 -
Matías Gómez Granada Aktiv 113 / 122 40% 6 20.05.2027 -
Bernardo Lima Porto Aktiv 92 / 105 40% 2 18.05.2027 -
José Pachuca Puebla Aktiv 114 / 103 40% 2 18.05.2027 -
Tiago Freitas Benfica Aktiv 108 / 116 40% 1 18.05.2027 -
Juan Giménez Celta Aktiv 121 / 134 40% 2 17.05.2027 -
Daniel Vernattus Metalist Aktiv 92 / 79 40% 1 17.05.2027 -
Matvey Kislyak CSKA Moscow Aktiv 125 / 149 40% 3 16.05.2027 -
Yusi Alavés Aktiv 133 / 147 40% 5 15.05.2027 -
Sascha Britschgi Padova Aktiv 113 / 129 40% 3 15.05.2027 -
Caleb Yirenkyi Coventry City Aktiv 139 / 129 40% 2 14.05.2027 -
Johan Manzambi Newcastle United Aktiv 139 / 141 40% 1 14.05.2027 -
Leonardo Mendicino Bari Aktiv 113 / 129 40% 1 14.05.2027 -
Joel McGregor Swindon Town Aktiv 96 / 106 40% 3 09.05.2027 -
Daniel Kelly Oxford United Aktiv 108 / 119 40% 1 09.05.2027 -
Noah Nartey Olympique Lyonnais Aktiv 128 / 140 40% 2 03.05.2027 -
Josh King Chelsea Aktiv 142 / 138 40% 2 23.04.2027 -
Cheveyo Tsawa Club Brugge Aktiv 120 / 122 40% 1 23.04.2027 -
Yussif Saidu Zaragoza Aktiv 116 / 125 40% 3 22.04.2027 -
Jan Bürger Gillingham Aktiv 111 / 108 40% 2 22.04.2027 -
David Ozoh Derby County Aktiv 114 / 115 40% 3 20.04.2027 -
Toni Tamarit Alverca Aktiv 114 / 131 40% 2 20.04.2027 -
Riley Owen Trento Aktiv 106 / 112 40% 2 18.04.2027 -
Samuele di Benedetto Bari Aktiv 112 / 106 40% 1 18.04.2027 -
Daniel Costa Sporting CP Aktiv 97 / 101 40% 1 15.04.2027 -
Ronwen Phiri Platinum Stars Aktiv 106 / 108 40% 2 10.04.2027 -
Surprise Manthosi Polokwane City Aktiv 88 / 91 40% 1 08.04.2027 -
João Simões Sporting CP Aktiv 136 / 138 40% 3 06.04.2027 -
Lucas Agazzi Defensor Sporting Aktiv 125 / 129 40% 3 05.04.2027 -
Christos Mouzakitis Hull City Aktiv 128 / 129 40% 2 05.04.2027 -
Jack Hinshelwood Brighton Aktiv 138 / 161 40% 1 05.04.2027 -
Zaïd BafdilI Sporting CP Aktiv 92 / 100 40% 1 02.04.2027 -
Adam Bakoune Ospitaletto Aktiv 92 / 90 40% 1 01.04.2027 -
Izan Merino Málaga Aktiv 131 / 125 40% 1 25.03.2027 -
Victor Froholdt Porto Aktiv 146 / 167 40% 1 22.03.2027 -
Cemran Dansin Orlando Pirates Aktiv 104 / 117 40% 1 20.03.2027 -
David Valencia Alianza Petrolera Aktiv 121 / 138 40% 1 17.03.2027 -
Jofre Torrents Ajax Aktiv 121 / 133 40% 2 14.03.2027 -
James Dornelly Peterborough United Aktiv 96 / 105 40% 2 07.03.2027 -
Pape Diong Westerlo Aktiv 108 / 110 40% 1 07.03.2027 -
Martim Cunha Porto Aktiv 93 / 102 40% 1 02.03.2027 -
Ernie Weaver AFC Wimbledon Aktiv 102 / 122 40% 1 02.03.2027 -
Hamish Douglas Grimsby Town Aktiv 89 / 90 40% 1 01.03.2027 -
Lautaro Vargas Leganés Aktiv 127 / 118 40% 1 12.01.2027 -
Antoni Milambo Brentford Aktiv 135 / 154 40% 1 12.01.2027 -
Aidan Morris Middlesbrough Aktiv 134 / 126 40% 1 30.12.2026 -
Juan Pablo Freytes Fluminense Aktiv 121 / 123 40% 1 30.12.2026 -
Ilay Camara Anderlecht Aktiv 136 / 130 40% 2 28.12.2026 -
Florentino Luís Ipswich Town Aktiv 143 / 152 40% 1 28.12.2026 -
Gorka Gorosabel Real Sociedad Aktiv 101 / 126 67% 1 26.12.2026 Beobachten
Fran Beltrán Girona Aktiv 149 / 134 40% 3 24.12.2026 -
Callum Doyle Wrexham Aktiv 125 / 136 40% 1 24.12.2026 -
Mfundo Vilakazi Kaizer Chiefs Aktiv 117 / 128 40% 1 22.12.2026 -
Senny Mayulu Paris Saint-Germain Aktiv 151 / 150 40% 1 20.12.2026 -
Tristan Degreef Anderlecht Aktiv 116 / 121 40% 2 19.12.2026 -
Jesús Areso Athletic Bilbao Aktiv 135 / 134 40% 1 17.12.2026 -
Arnau Martínez Valencia Aktiv 148 / 152 40% 1 17.12.2026 -
Daijiro Chirino Almería Aktiv 137 / 145 40% 1 17.12.2026 -
Welington Southampton Aktiv 123 / 132 40% 3 15.12.2026 -
Bobby Thomas Coventry City Aktiv 142 / 121 40% 1 15.12.2026 -
Samuel Lucero Defensa y Justicia Aktiv 109 / 116 40% 2 14.12.2026 -
Assane Diao Lazio Aktiv 154 / 161 40% 3 14.12.2026 -
Lander Astiazarán Real Sociedad Aktiv 94 / 105 40% 1 14.12.2026 -
Pol Lozano Espanyol Aktiv 143 / 129 40% 3 13.12.2026 -
Adam Wharton Crystal Palace Aktiv 143 / 166 40% 2 13.12.2026 -
Caylan Vickers Burton Albion Aktiv 111 / 107 40% 3 12.12.2026 -
Alejandro Francés Girona Aktiv 137 / 128 40% 1 10.12.2026 -
Noah Sadiki Sunderland Aktiv 140 / 136 40% 1 10.12.2026 -
Adrià Altimira Deportivo La Coruña Aktiv 137 / 115 40% 1 08.12.2026 -
Richard Ledezma Guadalajara Aktiv 143 / 127 40% 1 08.12.2026 -
Arda Güler Real Madrid Aktiv 155 / 153 40% 1 07.12.2026 -
Percy Jali Free State Stars Aktiv 80 / 82 40% 1 05.12.2026 -
Jesús Rodríguez Como Aktiv 133 / 131 40% 1 02.12.2026 -
Diogo Guzmán Montevideo City Torque Aktiv 113 / 125 40% 1 30.11.2026 -
James Cardona La Equidad Aktiv 148 / 137 40% 3 28.11.2026 -
Kevin Álvarez Club America Aktiv 124 / 146 40% 1 28.11.2026 -
Rayan Aït-Nouri Manchester City Aktiv 146 / 135 40% 1 26.11.2026 -
Malick Fofana Sunderland Aktiv 147 / 154 40% 3 23.11.2026 -
Ilaix Moriba Celta Aktiv 149 / 151 40% 2 22.11.2026 -
Boubacar Kamara Aston Villa Aktiv 158 / 153 40% 1 22.11.2026 -
Carlos Romero Villarreal Aktiv 149 / 156 40% 1 22.11.2026 -
Giovanni Cantizano Rosario Central Aktiv 102 / 122 40% 3 20.11.2026 -
Diego Gaitán Maipú Aktiv 101 / 113 40% 2 20.11.2026 -
Javier Mena Portimonense Aktiv 122 / 115 40% 1 19.11.2026 -
Franco Minerva Platense Aktiv 120 / 126 40% 1 19.11.2026 -
Ethan Williams Peterborough United Aktiv 115 / 106 40% 1 18.11.2026 -
Tyler Adams Bournemouth Aktiv 151 / 166 40% 1 18.11.2026 -
Aníbal Moreno River Plate Aktiv 140 / 127 40% 4 13.11.2026 -
Rico Lewis Manchester City Aktiv 143 / 156 40% 2 13.11.2026 -
Mika Mármol Feyenoord Aktiv 133 / 125 40% 1 13.11.2026 -
Ryan Sessegnon Fulham Aktiv 150 / 146 40% 1 13.11.2026 -
Oscar Schwartau Norwich City Aktiv 115 / 115 40% 1 13.11.2026 -
Jonás Luna Santa Clara Aktiv 117 / 127 40% 1 13.11.2026 -
Nico O'Reilly Manchester City Aktiv 157 / 145 40% 2 12.11.2026 -
Ayrton Costa Boca Juniors Aktiv 123 / 140 40% 1 10.11.2026 -
Shea Charles Southampton Aktiv 137 / 136 40% 1 10.11.2026 -
Logan Costa Villarreal Aktiv 142 / 150 40% 1 10.11.2026 -
Valentino Acuña Newell's Old Boys Aktiv 118 / 121 40% 1 08.11.2026 -
Ousmane Diomande Nottingham Forest Aktiv 157 / 145 40% 1 06.11.2026 -
Israel Reyes CSKA Moscow Aktiv 131 / 157 40% 1 06.11.2026 -
Quinten Timber Crystal Palace Aktiv 141 / 142 40% 1 04.11.2026 -
Pedro Porro Tottenham Aktiv 151 / 157 40% 1 04.11.2026 -
Leo Castledine Middlesbrough Aktiv 127 / 129 40% 1 03.11.2026 -
Sidiki Chérif Coventry City Aktiv 130 / 116 40% 1 03.11.2026 -
Anton Stach Leeds United Aktiv 149 / 143 40% 2 02.11.2026 -
Gavi Barcelona Aktiv 159 / 153 40% 1 02.11.2026 -
Ramiro Hernandes Belgrano Aktiv 114 / 135 40% 1 31.10.2026 -
Tomás Aranda Boca Juniors Aktiv 106 / 113 40% 2 30.10.2026 -
Luca Regiardo Newell's Old Boys Aktiv 97 / 108 40% 1 28.10.2026 -
Mateo Aguiar Defensa y Justicia Aktiv 118 / 118 40% 1 25.10.2026 -
Didier Dawson Envigado Aktiv 110 / 103 40% 1 21.10.2026 -
Nazareno Kihm Ferro Carril Oeste Aktiv 115 / 117 40% 1 15.10.2026 -
Ignacio Perruzzi San Lorenzo Aktiv 117 / 138 40% 1 14.10.2026 -
Rodrigo Huescas FC Copenhagen Aktiv 138 / 126 40% 1 13.10.2026 -
Fidel Ambríz Monterrey Aktiv 135 / 144 40% 1 13.10.2026 -
Yehor Yarmoliuk Brentford Aktiv 154 / 158 40% 1 12.10.2026 -
Víctor Guzmán Monterrey Aktiv 122 / 134 40% 1 09.10.2026 -
Tilman Palacios America de Cali Aktiv 119 / 127 40% 1 07.10.2026 -
Sergio Gómez Real Sociedad Aktiv 148 / 154 40% 1 11.09.2026 -
Ethan Galbraith Swansea City Aktiv 127 / 136 40% 1 08.09.2026 -
Dani Vivian Athletic Bilbao Aktiv 151 / 159 40% 1 08.09.2026 -
Natan Betis Aktiv 138 / 149 40% 1 07.09.2026 -
Nathan Collins Brentford Aktiv 145 / 136 40% 1 07.09.2026 -
Lucas Pyziak Vélez Aktiv 98 / 113 40% 1 05.08.2026 -
Ángel Sepúlveda Guadalajara Aktiv 135 / 128 40% 1 01.08.2026 -